HIM774 VNKT-ZULS
Flight info
| Callsign | HIM774 |
|---|---|
| Flight time | 1h 9m |
| Altitude | 37000 |
| Route | IGRIS1C KIMTI B345 NONIM/K0813S1130 B345 RKZ |
| Aircraft | A319/M-SDE3FGHIRWY/LB1 |
Departure
| Time | 2026-05-09 15:03 |
|---|---|
| Airport | Tribhuvan International Airport (VNKT) |
Arrival
| Time | 2026-05-09 16:13 |
|---|---|
| Airport | Lhasa Gonggar International Airport (ZULS) |
| Time | Latitude | Longitude | Altitude | Speed | Heading |
|---|---|---|---|---|---|
| 2026-05-09 14:25 | 27.70182 | 85.35943 | 4439 ft | 0 kts | 291° |
| 2026-05-09 14:52 | 27.70182 | 85.35945 | 4439 ft | 0 kts | 302° |
| 2026-05-09 14:52 | 27.70173 | 85.35953 | 4439 ft | 1 kts | 324° |
| 2026-05-09 14:53 | 27.70167 | 85.35967 | 4439 ft | 2 kts | 285° |
| 2026-05-09 14:53 | 27.70162 | 85.35983 | 4440 ft | 2 kts | 292° |
| 2026-05-09 14:53 | 27.70158 | 85.35992 | 4440 ft | 2 kts | 291° |
| 2026-05-09 14:53 | 27.70157 | 85.36009 | 4439 ft | 2 kts | 248° |
| 2026-05-09 14:54 | 27.70167 | 85.36023 | 4439 ft | 1 kts | 211° |
| 2026-05-09 14:54 | 27.70172 | 85.36027 | 4440 ft | 1 kts | 197° |
| 2026-05-09 14:54 | 27.70176 | 85.36028 | 4440 ft | 0 kts | 201° |
| 2026-05-09 14:56 | 27.70171 | 85.36025 | 4439 ft | 2 kts | 200° |
| 2026-05-09 14:56 | 27.70142 | 85.36015 | 4439 ft | 5 kts | 196° |
| 2026-05-09 14:56 | 27.70096 | 85.35996 | 4438 ft | 8 kts | 201° |
| 2026-05-09 14:57 | 27.70032 | 85.35968 | 4437 ft | 11 kts | 201° |
| 2026-05-09 14:57 | 27.69944 | 85.35928 | 4433 ft | 15 kts | 202° |
| 2026-05-09 14:57 | 27.69832 | 85.35876 | 4427 ft | 19 kts | 202° |
| 2026-05-09 14:57 | 27.69692 | 85.35812 | 4417 ft | 24 kts | 201° |
| 2026-05-09 14:58 | 27.69518 | 85.35732 | 4403 ft | 29 kts | 202° |
| 2026-05-09 14:58 | 27.69331 | 85.35646 | 4389 ft | 26 kts | 203° |
| 2026-05-09 14:58 | 27.69181 | 85.35578 | 4377 ft | 17 kts | 201° |
| 2026-05-09 14:58 | 27.69102 | 85.35556 | 4372 ft | 0 kts | 164° |
| 2026-05-09 14:59 | 27.69101 | 85.35556 | 4372 ft | 0 kts | 163° |
| 2026-05-09 14:59 | 27.69086 | 85.35568 | 4372 ft | 5 kts | 136° |
| 2026-05-09 14:59 | 27.69054 | 85.35614 | 4372 ft | 8 kts | 143° |
| 2026-05-09 15:00 | 27.68971 | 85.35605 | 4368 ft | 17 kts | 202° |
| 2026-05-09 15:00 | 27.68838 | 85.35542 | 4364 ft | 23 kts | 202° |
| 2026-05-09 15:00 | 27.68678 | 85.35469 | 4358 ft | 26 kts | 201° |
| 2026-05-09 15:00 | 27.68503 | 85.35389 | 4357 ft | 27 kts | 202° |
| 2026-05-09 15:01 | 27.68225 | 85.35193 | 4355 ft | 17 kts | 205° |
| 2026-05-09 15:01 | 27.68176 | 85.35256 | 4355 ft | 14 kts | 34° |
| 2026-05-09 15:01 | 27.68234 | 85.35268 | 4355 ft | 0 kts | 22° |
| 2026-05-09 15:02 | 27.68291 | 85.35294 | 4355 ft | 36 kts | 22° |
| 2026-05-09 15:02 | 27.68761 | 85.35507 | 4362 ft | 106 kts | 21° |
| 2026-05-09 15:03 | 27.69639 | 85.35903 | 4422 ft | 159 kts | 21° |
| 2026-05-09 15:03 | 27.70687 | 85.36382 | 4906 ft | 165 kts | 22° |
| 2026-05-09 15:03 | 27.71722 | 85.36865 | 5630 ft | 160 kts | 22° |
| 2026-05-09 15:03 | 27.72688 | 85.37460 | 6237 ft | 163 kts | 37° |
| 2026-05-09 15:04 | 27.73501 | 85.38419 | 6670 ft | 178 kts | 57° |
| 2026-05-09 15:04 | 27.73994 | 85.39762 | 7113 ft | 195 kts | 78° |
| 2026-05-09 15:06 | 27.67657 | 85.46783 | 11749 ft | 251 kts | 201° |
| 2026-05-09 15:06 | 27.66145 | 85.45818 | 12452 ft | 254 kts | 220° |
| 2026-05-09 15:06 | 27.64906 | 85.44392 | 13172 ft | 256 kts | 236° |
| 2026-05-09 15:06 | 27.64052 | 85.42672 | 13856 ft | 256 kts | 252° |
| 2026-05-09 15:07 | 27.63665 | 85.40720 | 14511 ft | 258 kts | 267° |
| 2026-05-09 15:07 | 27.63613 | 85.38688 | 15155 ft | 261 kts | 273° |
| 2026-05-09 15:07 | 27.63668 | 85.36644 | 15826 ft | 264 kts | 274° |
| 2026-05-09 15:07 | 27.63743 | 85.34573 | 16469 ft | 266 kts | 277° |
| 2026-05-09 15:08 | 27.64120 | 85.32557 | 17034 ft | 268 kts | 294° |
| 2026-05-09 15:08 | 27.66244 | 85.29178 | 18290 ft | 266 kts | 325° |
| 2026-05-09 15:08 | 27.67823 | 85.28122 | 18906 ft | 265 kts | 340° |
| 2026-05-09 15:09 | 27.69605 | 85.27600 | 19491 ft | 266 kts | 356° |
| 2026-05-09 15:10 | 27.76792 | 85.37369 | 23436 ft | 293 kts | 104° |
| 2026-05-09 15:11 | 27.75934 | 85.39468 | 24017 ft | 299 kts | 121° |
| 2026-05-09 15:11 | 27.74543 | 85.41229 | 24585 ft | 306 kts | 137° |
| 2026-05-09 15:11 | 27.72812 | 85.42687 | 24885 ft | 320 kts | 141° |
| 2026-05-09 15:11 | 27.70953 | 85.44148 | 25146 ft | 333 kts | 141° |
| 2026-05-09 15:12 | 27.69020 | 85.45713 | 25406 ft | 347 kts | 141° |
| 2026-05-09 15:12 | 27.67081 | 85.47437 | 25650 ft | 358 kts | 134° |
| 2026-05-09 15:12 | 27.65381 | 85.49502 | 25883 ft | 368 kts | 125° |
| 2026-05-09 15:12 | 27.63944 | 85.51959 | 26112 ft | 378 kts | 116° |
| 2026-05-09 15:13 | 27.62874 | 85.54689 | 26370 ft | 387 kts | 107° |
| 2026-05-09 15:13 | 27.62065 | 85.57603 | 26813 ft | 392 kts | 105° |
| 2026-05-09 15:13 | 27.61303 | 85.60524 | 27338 ft | 394 kts | 105° |
| 2026-05-09 15:13 | 27.60524 | 85.63509 | 27841 ft | 397 kts | 106° |
| 2026-05-09 15:14 | 27.59735 | 85.66488 | 28354 ft | 399 kts | 107° |
| 2026-05-09 15:14 | 27.58868 | 85.69466 | 28901 ft | 400 kts | 112° |
| 2026-05-09 15:14 | 27.57708 | 85.72311 | 29430 ft | 401 kts | 116° |
| 2026-05-09 15:14 | 27.56467 | 85.75131 | 29904 ft | 404 kts | 117° |
| 2026-05-09 15:15 | 27.55206 | 85.77968 | 30322 ft | 408 kts | 117° |
| 2026-05-09 15:15 | 27.53950 | 85.80804 | 30714 ft | 412 kts | 118° |
| 2026-05-09 15:15 | 27.52680 | 85.83717 | 31129 ft | 416 kts | 116° |
| 2026-05-09 15:15 | 27.51683 | 85.86810 | 31510 ft | 423 kts | 108° |
| 2026-05-09 15:16 | 27.51111 | 85.90030 | 31968 ft | 427 kts | 100° |
| 2026-05-09 15:16 | 27.50895 | 85.93368 | 32482 ft | 430 kts | 96° |
| 2026-05-09 15:16 | 27.50771 | 85.96760 | 32987 ft | 431 kts | 96° |
| 2026-05-09 15:16 | 27.50664 | 86.00099 | 33455 ft | 432 kts | 96° |
| 2026-05-09 15:17 | 27.50549 | 86.03476 | 33799 ft | 434 kts | 96° |
| 2026-05-09 15:17 | 27.50427 | 86.06858 | 34109 ft | 436 kts | 96° |
| 2026-05-09 15:17 | 27.50298 | 86.10288 | 34428 ft | 438 kts | 96° |
| 2026-05-09 15:17 | 27.50170 | 86.13690 | 34719 ft | 440 kts | 96° |
| 2026-05-09 15:18 | 27.50035 | 86.17172 | 34987 ft | 444 kts | 96° |
| 2026-05-09 15:18 | 27.49901 | 86.20634 | 35306 ft | 446 kts | 96° |
| 2026-05-09 15:18 | 27.49730 | 86.24097 | 35696 ft | 447 kts | 98° |
| 2026-05-09 15:18 | 27.49395 | 86.27560 | 36027 ft | 448 kts | 102° |
| 2026-05-09 15:19 | 27.48866 | 86.31018 | 36307 ft | 449 kts | 105° |
| 2026-05-09 15:19 | 27.48217 | 86.34464 | 36536 ft | 453 kts | 106° |
| 2026-05-09 15:19 | 27.47541 | 86.37946 | 36772 ft | 457 kts | 107° |
| 2026-05-09 15:19 | 27.46863 | 86.41443 | 37027 ft | 459 kts | 107° |
| 2026-05-09 15:20 | 27.46177 | 86.44966 | 37293 ft | 462 kts | 106° |
| 2026-05-09 15:20 | 27.44804 | 86.52084 | 37512 ft | 469 kts | 107° |
| 2026-05-09 15:21 | 27.43420 | 86.59252 | 37487 ft | 471 kts | 107° |
| 2026-05-09 15:21 | 27.42030 | 86.66429 | 37539 ft | 470 kts | 107° |
| 2026-05-09 15:22 | 27.40638 | 86.73602 | 37518 ft | 471 kts | 107° |
| 2026-05-09 15:22 | 27.39234 | 86.80825 | 37486 ft | 473 kts | 108° |
| 2026-05-09 15:23 | 27.37833 | 86.88008 | 37380 ft | 472 kts | 108° |
| 2026-05-09 15:23 | 27.36426 | 86.95197 | 37449 ft | 472 kts | 108° |
| 2026-05-09 15:24 | 27.35006 | 87.02426 | 37435 ft | 472 kts | 108° |
| 2026-05-09 15:24 | 27.33901 | 87.09722 | 37450 ft | 482 kts | 94° |
| 2026-05-09 15:24 | 27.34264 | 87.13494 | 37453 ft | 490 kts | 79° |
| 2026-05-09 15:25 | 27.35409 | 87.17110 | 37405 ft | 495 kts | 64° |
| 2026-05-09 15:25 | 27.37285 | 87.20333 | 37464 ft | 496 kts | 48° |
| 2026-05-09 15:25 | 27.39785 | 87.22992 | 37482 ft | 492 kts | 33° |
| 2026-05-09 15:26 | 27.45909 | 87.26344 | 37533 ft | 485 kts | 17° |
| 2026-05-09 15:26 | 27.49049 | 87.27685 | 37574 ft | 484 kts | 16° |
| 2026-05-09 15:26 | 27.55333 | 87.30429 | 37725 ft | 485 kts | 17° |
| 2026-05-09 15:27 | 27.61616 | 87.33294 | 37786 ft | 484 kts | 17° |
| 2026-05-09 15:27 | 27.67812 | 87.36153 | 37886 ft | 483 kts | 18° |
| 2026-05-09 15:28 | 27.74060 | 87.39039 | 37928 ft | 482 kts | 18° |
| 2026-05-09 15:28 | 27.80115 | 87.42297 | 37993 ft | 486 kts | 27° |
| 2026-05-09 15:29 | 27.85751 | 87.46632 | 38022 ft | 490 kts | 37° |
| 2026-05-09 15:29 | 27.90713 | 87.51887 | 38055 ft | 490 kts | 45° |
| 2026-05-09 15:30 | 27.95376 | 87.57488 | 38107 ft | 489 kts | 45° |
| 2026-05-09 15:30 | 28.00044 | 87.63081 | 38097 ft | 489 kts | 45° |
| 2026-05-09 15:31 | 28.04728 | 87.68663 | 38069 ft | 488 kts | 45° |
| 2026-05-09 15:31 | 28.09396 | 87.74211 | 38067 ft | 488 kts | 45° |
| 2026-05-09 15:32 | 28.14065 | 87.79766 | 38046 ft | 488 kts | 45° |
| 2026-05-09 15:32 | 28.18748 | 87.85353 | 38028 ft | 488 kts | 45° |
| 2026-05-09 15:33 | 28.23437 | 87.90948 | 38051 ft | 489 kts | 45° |
| 2026-05-09 15:33 | 28.28123 | 87.96555 | 38033 ft | 488 kts | 45° |
| 2026-05-09 15:34 | 28.32799 | 88.02155 | 38023 ft | 487 kts | 45° |
| 2026-05-09 15:34 | 28.37427 | 88.07709 | 38007 ft | 486 kts | 45° |
| 2026-05-09 15:35 | 28.42094 | 88.13306 | 37991 ft | 487 kts | 45° |
| 2026-05-09 15:35 | 28.46729 | 88.18873 | 37960 ft | 486 kts | 44° |
| 2026-05-09 15:36 | 28.51351 | 88.24440 | 37950 ft | 486 kts | 45° |
| 2026-05-09 15:36 | 28.56000 | 88.30044 | 37934 ft | 486 kts | 45° |
| 2026-05-09 15:37 | 28.60620 | 88.35626 | 37914 ft | 484 kts | 44° |
| 2026-05-09 15:37 | 28.65221 | 88.41187 | 37906 ft | 483 kts | 45° |
| 2026-05-09 15:38 | 28.69818 | 88.46757 | 37881 ft | 483 kts | 44° |
| 2026-05-09 15:38 | 28.74411 | 88.52328 | 37876 ft | 482 kts | 44° |
| 2026-05-09 15:39 | 28.78990 | 88.57882 | 37878 ft | 483 kts | 44° |
| 2026-05-09 15:39 | 28.83572 | 88.63458 | 37860 ft | 482 kts | 44° |
| 2026-05-09 15:40 | 28.88150 | 88.69030 | 37857 ft | 481 kts | 45° |
| 2026-05-09 15:40 | 28.92715 | 88.74601 | 37819 ft | 478 kts | 45° |
| 2026-05-09 15:41 | 28.97240 | 88.80122 | 37807 ft | 479 kts | 45° |
| 2026-05-09 15:41 | 29.01803 | 88.85704 | 37800 ft | 478 kts | 45° |
| 2026-05-09 15:42 | 29.06321 | 88.91236 | 37800 ft | 477 kts | 44° |
| 2026-05-09 15:42 | 29.10855 | 88.96791 | 37828 ft | 477 kts | 45° |
| 2026-05-09 15:43 | 29.15357 | 89.02320 | 37827 ft | 477 kts | 45° |
| 2026-05-09 15:43 | 29.19881 | 89.07886 | 37819 ft | 477 kts | 45° |
| 2026-05-09 15:44 | 29.24416 | 89.13478 | 37835 ft | 479 kts | 45° |
| 2026-05-09 15:44 | 29.28972 | 89.19095 | 37848 ft | 479 kts | 45° |
| 2026-05-09 15:45 | 29.32822 | 89.25301 | 37858 ft | 481 kts | 63° |
| 2026-05-09 15:45 | 29.34962 | 89.32555 | 37878 ft | 480 kts | 82° |
| 2026-05-09 15:46 | 29.35279 | 89.40112 | 37885 ft | 477 kts | 95° |
| 2026-05-09 15:46 | 29.34976 | 89.47728 | 37897 ft | 478 kts | 95° |
| 2026-05-09 15:47 | 29.34700 | 89.55301 | 37875 ft | 478 kts | 95° |
| 2026-05-09 15:47 | 29.34461 | 89.62936 | 37900 ft | 479 kts | 95° |
| 2026-05-09 15:48 | 29.34232 | 89.70583 | 37895 ft | 481 kts | 96° |
| 2026-05-09 15:48 | 29.33992 | 89.78254 | 37922 ft | 481 kts | 95° |
| 2026-05-09 15:49 | 29.33754 | 89.85892 | 37942 ft | 482 kts | 95° |
| 2026-05-09 15:49 | 29.33510 | 89.93603 | 37935 ft | 484 kts | 95° |
| 2026-05-09 15:50 | 29.33265 | 90.01243 | 37932 ft | 483 kts | 95° |
| 2026-05-09 15:50 | 29.33011 | 90.08927 | 37932 ft | 483 kts | 96° |
| 2026-05-09 15:51 | 29.32560 | 90.16652 | 37935 ft | 482 kts | 101° |
| 2026-05-09 15:51 | 29.31325 | 90.24121 | 37605 ft | 473 kts | 109° |
| 2026-05-09 15:52 | 29.29432 | 90.31243 | 37136 ft | 464 kts | 112° |
| 2026-05-09 15:52 | 29.28453 | 90.34750 | 36896 ft | 459 kts | 112° |
| 2026-05-09 15:52 | 29.27492 | 90.38216 | 36641 ft | 456 kts | 112° |
| 2026-05-09 15:53 | 29.26534 | 90.41687 | 36321 ft | 455 kts | 112° |
| 2026-05-09 15:53 | 29.25597 | 90.45109 | 35871 ft | 454 kts | 111° |
| 2026-05-09 15:53 | 29.24642 | 90.48573 | 35232 ft | 457 kts | 111° |
| 2026-05-09 15:53 | 29.23682 | 90.52039 | 34509 ft | 461 kts | 111° |
| 2026-05-09 15:54 | 29.22719 | 90.55526 | 33818 ft | 463 kts | 110° |
| 2026-05-09 15:54 | 29.21752 | 90.59035 | 33217 ft | 459 kts | 110° |
| 2026-05-09 15:54 | 29.20799 | 90.62492 | 32597 ft | 456 kts | 110° |
| 2026-05-09 15:54 | 29.19852 | 90.65926 | 32010 ft | 447 kts | 110° |
| 2026-05-09 15:55 | 29.18936 | 90.69247 | 31417 ft | 440 kts | 110° |
| 2026-05-09 15:55 | 29.18008 | 90.72602 | 30784 ft | 435 kts | 110° |
| 2026-05-09 15:55 | 29.17113 | 90.75819 | 30356 ft | 425 kts | 109° |
| 2026-05-09 15:55 | 29.16298 | 90.79034 | 29908 ft | 417 kts | 107° |
| 2026-05-09 15:56 | 29.15559 | 90.82226 | 29463 ft | 410 kts | 106° |
| 2026-05-09 15:56 | 29.14849 | 90.85332 | 29034 ft | 405 kts | 106° |
| 2026-05-09 15:56 | 29.14134 | 90.88444 | 28589 ft | 401 kts | 106° |
| 2026-05-09 15:56 | 29.13434 | 90.91496 | 28151 ft | 397 kts | 106° |
| 2026-05-09 15:57 | 29.12731 | 90.94553 | 27700 ft | 394 kts | 105° |
| 2026-05-09 15:57 | 29.12040 | 90.97537 | 27272 ft | 391 kts | 105° |
| 2026-05-09 15:57 | 29.11346 | 91.00546 | 26823 ft | 388 kts | 105° |
| 2026-05-09 15:57 | 29.10661 | 91.03506 | 26379 ft | 386 kts | 105° |
| 2026-05-09 15:58 | 29.09974 | 91.06468 | 25936 ft | 384 kts | 105° |
| 2026-05-09 15:58 | 29.09292 | 91.09404 | 25499 ft | 382 kts | 105° |
| 2026-05-09 15:58 | 29.08618 | 91.12311 | 25086 ft | 379 kts | 105° |
| 2026-05-09 15:58 | 29.07952 | 91.15179 | 24935 ft | 366 kts | 105° |
| 2026-05-09 15:59 | 29.07310 | 91.17944 | 24787 ft | 350 kts | 105° |
| 2026-05-09 15:59 | 29.06701 | 91.20565 | 24676 ft | 334 kts | 105° |
| 2026-05-09 15:59 | 29.06118 | 91.23066 | 24568 ft | 321 kts | 105° |
| 2026-05-09 15:59 | 29.05557 | 91.25476 | 24479 ft | 314 kts | 105° |
| 2026-05-09 16:00 | 29.05005 | 91.27892 | 24373 ft | 310 kts | 100° |
| 2026-05-09 16:00 | 29.04885 | 91.29510 | 24270 ft | 307 kts | 83° |
| 2026-05-09 16:00 | 29.05832 | 91.32509 | 24027 ft | 304 kts | 51° |
| 2026-05-09 16:00 | 29.07360 | 91.34110 | 23679 ft | 301 kts | 30° |
| 2026-05-09 16:01 | 29.09184 | 91.35309 | 23361 ft | 300 kts | 28° |
| 2026-05-09 16:01 | 29.10987 | 91.36479 | 23040 ft | 298 kts | 28° |
| 2026-05-09 16:01 | 29.12783 | 91.37662 | 22726 ft | 297 kts | 28° |
| 2026-05-09 16:01 | 29.14575 | 91.38856 | 22412 ft | 296 kts | 29° |
| 2026-05-09 16:02 | 29.16333 | 91.40036 | 22100 ft | 295 kts | 28° |
| 2026-05-09 16:02 | 29.19853 | 91.42411 | 21516 ft | 289 kts | 29° |
| 2026-05-09 16:02 | 29.21571 | 91.43572 | 21245 ft | 283 kts | 29° |
| 2026-05-09 16:03 | 29.23244 | 91.44692 | 20928 ft | 275 kts | 26° |
| 2026-05-09 16:03 | 29.25043 | 91.45283 | 20601 ft | 265 kts | 358° |
| 2026-05-09 16:03 | 29.26782 | 91.44871 | 20534 ft | 249 kts | 334° |
| 2026-05-09 16:03 | 29.28165 | 91.43739 | 20328 ft | 241 kts | 311° |
| 2026-05-09 16:04 | 29.29023 | 91.42104 | 20128 ft | 242 kts | 295° |
| 2026-05-09 16:04 | 29.29621 | 91.40301 | 19835 ft | 241 kts | 291° |
| 2026-05-09 16:04 | 29.30121 | 91.38473 | 19562 ft | 242 kts | 285° |
| 2026-05-09 16:04 | 29.30345 | 91.36584 | 19328 ft | 243 kts | 276° |
| 2026-05-09 16:05 | 29.30418 | 91.34624 | 19128 ft | 244 kts | 274° |
| 2026-05-09 16:05 | 29.30443 | 91.32689 | 18935 ft | 244 kts | 272° |
| 2026-05-09 16:05 | 29.30442 | 91.30765 | 18745 ft | 243 kts | 272° |
| 2026-05-09 16:05 | 29.30424 | 91.28838 | 18545 ft | 242 kts | 272° |
| 2026-05-09 16:06 | 29.30396 | 91.26932 | 18303 ft | 233 kts | 272° |
| 2026-05-09 16:06 | 29.30363 | 91.25119 | 17899 ft | 224 kts | 272° |
| 2026-05-09 16:06 | 29.30328 | 91.23362 | 17517 ft | 217 kts | 272° |
| 2026-05-09 16:06 | 29.30296 | 91.21674 | 17336 ft | 212 kts | 272° |
| 2026-05-09 16:07 | 29.30264 | 91.19975 | 17304 ft | 213 kts | 272° |
| 2026-05-09 16:07 | 29.30230 | 91.18297 | 16900 ft | 212 kts | 271° |
| 2026-05-09 16:07 | 29.30171 | 91.16624 | 16407 ft | 212 kts | 270° |
| 2026-05-09 16:07 | 29.30110 | 91.14941 | 15942 ft | 209 kts | 271° |
| 2026-05-09 16:08 | 29.30063 | 91.13294 | 15489 ft | 206 kts | 271° |
| 2026-05-09 16:08 | 29.30015 | 91.11686 | 15075 ft | 201 kts | 270° |
| 2026-05-09 16:08 | 29.29987 | 91.10111 | 14681 ft | 196 kts | 273° |
| 2026-05-09 16:08 | 29.29992 | 91.08584 | 14355 ft | 189 kts | 273° |
| 2026-05-09 16:09 | 29.29992 | 91.08350 | 14300 ft | 188 kts | 273° |
| 2026-05-09 16:09 | 29.29991 | 91.08206 | 14244 ft | 189 kts | 272° |
| 2026-05-09 16:09 | 29.29979 | 91.06690 | 13832 ft | 190 kts | 271° |
| 2026-05-09 16:10 | 29.29955 | 91.05193 | 13473 ft | 187 kts | 272° |
| 2026-05-09 16:10 | 29.29934 | 91.03730 | 13176 ft | 180 kts | 271° |
| 2026-05-09 16:10 | 29.29938 | 91.02312 | 12958 ft | 178 kts | 274° |
| 2026-05-09 16:10 | 29.29938 | 91.00908 | 12844 ft | 178 kts | 270° |
| 2026-05-09 16:11 | 29.29905 | 90.99488 | 12770 ft | 177 kts | 271° |
| 2026-05-09 16:11 | 29.29906 | 90.98071 | 12672 ft | 177 kts | 271° |
| 2026-05-09 16:11 | 29.29879 | 90.96655 | 12530 ft | 177 kts | 271° |
| 2026-05-09 16:11 | 29.29858 | 90.95248 | 12347 ft | 177 kts | 272° |
| 2026-05-09 16:12 | 29.29843 | 90.93843 | 12159 ft | 177 kts | 271° |
| 2026-05-09 16:12 | 29.29825 | 90.92477 | 12054 ft | 164 kts | 271° |
| 2026-05-09 16:12 | 29.29816 | 90.91367 | 12058 ft | 114 kts | 269° |
| 2026-05-09 16:12 | 29.29805 | 90.90659 | 12066 ft | 64 kts | 264° |
| 2026-05-09 16:13 | 29.29723 | 90.90346 | 12068 ft | 25 kts | 240° |
| 2026-05-09 16:13 | 29.29678 | 90.90252 | 12068 ft | 8 kts | 243° |
| 2026-05-09 16:13 | 29.29649 | 90.90185 | 12067 ft | 10 kts | 243° |
| 2026-05-09 16:13 | 29.29624 | 90.90107 | 12067 ft | 10 kts | 264° |
| 2026-05-09 16:14 | 29.29615 | 90.90023 | 12068 ft | 9 kts | 238° |
| 2026-05-09 16:14 | 29.29558 | 90.90000 | 12068 ft | 8 kts | 185° |
| 2026-05-09 16:14 | 29.29525 | 90.89957 | 12069 ft | 7 kts | 259° |
| 2026-05-09 16:14 | 29.29490 | 90.89917 | 12069 ft | 7 kts | 185° |
| 2026-05-09 16:15 | 29.29444 | 90.89919 | 12070 ft | 6 kts | 180° |
| 2026-05-09 16:15 | 29.29432 | 90.89919 | 12070 ft | 0 kts | 179° |
| 2026-05-09 16:15 | 29.29428 | 90.89919 | 12070 ft | 0 kts | 179° |